sensor_id;sensor_type;location;lat;lon;timestamp;pressure;altitude;pressure_sealevel;temperature;humidity
43553;BME280;29153;42.696;23.218;2023-12-22T00:02:22;92970.34;;;-1.37;100.00
43553;BME280;29153;42.696;23.218;2023-12-22T00:04:55;92980.02;;;-1.32;100.00
43553;BME280;29153;42.696;23.218;2023-12-22T00:07:22;92967.67;;;-1.25;100.00
43553;BME280;29153;42.696;23.218;2023-12-22T00:09:50;92975.25;;;-1.21;100.00
43553;BME280;29153;42.696;23.218;2023-12-22T00:12:17;92927.13;;;-1.45;100.00
43553;BME280;29153;42.696;23.218;2023-12-22T00:14:45;92976.14;;;-1.13;100.00
43553;BME280;29153;42.696;23.218;2023-12-22T00:17:12;92972.19;;;-1.15;100.00
43553;BME280;29153;42.696;23.218;2023-12-22T00:19:40;92961.78;;;-1.18;100.00
43553;BME280;29153;42.696;23.218;2023-12-22T00:22:07;92968.34;;;-1.13;100.00
43553;BME280;29153;42.696;23.218;2023-12-22T00:24:35;92957.26;;;-1.06;100.00
43553;BME280;29153;42.696;23.218;2023-12-22T00:27:03;92955.01;;;-1.00;100.00
43553;BME280;29153;42.696;23.218;2023-12-22T00:29:30;92943.59;;;-0.99;100.00
43553;BME280;29153;42.696;23.218;2023-12-22T00:31:58;92934.45;;;-1.01;100.00
43553;BME280;29153;42.696;23.218;2023-12-22T00:34:26;92924.66;;;-0.94;100.00
43553;BME280;29153;42.696;23.218;2023-12-22T00:36:53;92915.39;;;-0.87;100.00
43553;BME280;29153;42.696;23.218;2023-12-22T00:39:21;92920.72;;;-0.77;100.00
43553;BME280;29153;42.696;23.218;2023-12-22T00:41:49;92910.34;;;-0.72;100.00
43553;BME280;29153;42.696;23.218;2023-12-22T00:44:16;92910.97;;;-0.65;100.00
43553;BME280;29153;42.696;23.218;2023-12-22T00:46:44;92916.39;;;-0.67;100.00
43553;BME280;29153;42.696;23.218;2023-12-22T00:49:11;92946.78;;;-0.70;100.00
43553;BME280;29153;42.696;23.218;2023-12-22T00:51:39;92919.04;;;-0.64;100.00
43553;BME280;29153;42.696;23.218;2023-12-22T00:54:06;92901.51;;;-0.47;100.00
43553;BME280;29153;42.696;23.218;2023-12-22T00:56:34;92918.63;;;-0.51;100.00
43553;BME280;29153;42.696;23.218;2023-12-22T00:59:02;92912.73;;;-0.44;100.00
43553;BME280;29153;42.696;23.218;2023-12-22T01:01:29;92925.52;;;-0.40;100.00
43553;BME280;29153;42.696;23.218;2023-12-22T01:03:57;92917.11;;;-0.47;100.00
43553;BME280;29153;42.696;23.218;2023-12-22T01:06:25;92932.19;;;-0.49;100.00
43553;BME280;29153;42.696;23.218;2023-12-22T01:08:53;92928.80;;;-0.50;100.00
43553;BME280;29153;42.696;23.218;2023-12-22T01:11:20;92927.34;;;-0.38;100.00
43553;BME280;29153;42.696;23.218;2023-12-22T01:13:48;92925.74;;;-0.44;100.00
43553;BME280;29153;42.696;23.218;2023-12-22T01:16:16;92927.40;;;-0.33;100.00
43553;BME280;29153;42.696;23.218;2023-12-22T01:18:45;92913.83;;;-0.37;100.00
43553;BME280;29153;42.696;23.218;2023-12-22T01:21:12;92912.53;;;-0.37;100.00
43553;BME280;29153;42.696;23.218;2023-12-22T01:23:40;92909.97;;;-0.35;100.00
43553;BME280;29153;42.696;23.218;2023-12-22T01:26:08;92910.72;;;-0.37;100.00
43553;BME280;29153;42.696;23.218;2023-12-22T01:28:36;92888.82;;;-0.43;100.00
43553;BME280;29153;42.696;23.218;2023-12-22T01:31:03;92908.97;;;-0.29;100.00
43553;BME280;29153;42.696;23.218;2023-12-22T01:33:31;92910.14;;;-0.15;100.00
43553;BME280;29153;42.696;23.218;2023-12-22T01:35:58;92895.78;;;-0.22;100.00
43553;BME280;29153;42.696;23.218;2023-12-22T01:38:26;92897.48;;;-0.33;100.00
43553;BME280;29153;42.696;23.218;2023-12-22T01:40:53;92882.32;;;-0.12;100.00
43553;BME280;29153;42.696;23.218;2023-12-22T01:43:21;92876.84;;;-0.13;100.00
43553;BME280;29153;42.696;23.218;2023-12-22T01:45:55;92887.41;;;-0.27;100.00
43553;BME280;29153;42.696;23.218;2023-12-22T01:48:18;92869.54;;;-0.16;100.00
43553;BME280;29153;42.696;23.218;2023-12-22T01:50:46;92863.72;;;-0.28;100.00
43553;BME280;29153;42.696;23.218;2023-12-22T01:53:13;92877.52;;;-0.27;100.00
43553;BME280;29153;42.696;23.218;2023-12-22T01:55:42;92868.70;;;-0.24;100.00
43553;BME280;29153;42.696;23.218;2023-12-22T01:58:10;92851.03;;;-0.22;100.00
43553;BME280;29153;42.696;23.218;2023-12-22T02:00:38;92860.94;;;-0.19;100.00
43553;BME280;29153;42.696;23.218;2023-12-22T02:03:06;92861.22;;;-0.18;100.00
43553;BME280;29153;42.696;23.218;2023-12-22T02:05:34;92873.39;;;-0.23;100.00
43553;BME280;29153;42.696;23.218;2023-12-22T02:08:02;92868.42;;;-0.25;100.00
43553;BME280;29153;42.696;23.218;2023-12-22T02:10:29;92862.28;;;-0.14;100.00
43553;BME280;29153;42.696;23.218;2023-12-22T02:12:57;92847.38;;;-0.21;100.00
43553;BME280;29153;42.696;23.218;2023-12-22T02:15:25;92848.11;;;-0.28;100.00
43553;BME280;29153;42.696;23.218;2023-12-22T02:20:30;92833.38;;;-0.17;100.00
43553;BME280;29153;42.696;23.218;2023-12-22T02:22:58;92825.26;;;-0.23;100.00
43553;BME280;29153;42.696;23.218;2023-12-22T02:25:26;92828.94;;;-0.17;100.00
43553;BME280;29153;42.696;23.218;2023-12-22T02:28:02;92820.85;;;-0.20;100.00
43553;BME280;29153;42.696;23.218;2023-12-22T02:30:31;92829.02;;;-0.09;100.00
43553;BME280;29153;42.696;23.218;2023-12-22T02:32:59;92835.80;;;-0.06;100.00
43553;BME280;29153;42.696;23.218;2023-12-22T02:35:30;92836.87;;;-0.02;100.00
43553;BME280;29153;42.696;23.218;2023-12-22T02:37:59;92844.68;;;-0.02;100.00
43553;BME280;29153;42.696;23.218;2023-12-22T02:40:28;92735.82;;;-0.54;100.00
43553;BME280;29153;42.696;23.218;2023-12-22T02:42:55;92841.30;;;0.00;100.00
43553;BME280;29153;42.696;23.218;2023-12-22T02:45:23;92844.77;;;0.14;100.00
43553;BME280;29153;42.696;23.218;2023-12-22T02:47:51;92837.43;;;0.06;100.00
43553;BME280;29153;42.696;23.218;2023-12-22T02:50:18;92841.37;;;0.08;100.00
43553;BME280;29153;42.696;23.218;2023-12-22T02:52:46;92840.11;;;0.18;100.00
43553;BME280;29153;42.696;23.218;2023-12-22T02:55:13;92824.50;;;0.18;100.00
43553;BME280;29153;42.696;23.218;2023-12-22T02:57:42;92826.41;;;0.33;100.00
43553;BME280;29153;42.696;23.218;2023-12-22T03:00:10;92817.81;;;0.30;100.00
43553;BME280;29153;42.696;23.218;2023-12-22T03:02:38;92808.09;;;0.18;100.00
43553;BME280;29153;42.696;23.218;2023-12-22T03:05:06;92802.91;;;0.23;100.00
43553;BME280;29153;42.696;23.218;2023-12-22T03:07:33;92797.47;;;0.24;100.00
43553;BME280;29153;42.696;23.218;2023-12-22T03:10:01;92796.98;;;0.30;100.00
43553;BME280;29153;42.696;23.218;2023-12-22T03:12:29;92716.75;;;-0.30;100.00
43553;BME280;29153;42.696;23.218;2023-12-22T03:14:56;92807.61;;;0.26;100.00
43553;BME280;29153;42.696;23.218;2023-12-22T03:17:24;92821.45;;;0.31;100.00
43553;BME280;29153;42.696;23.218;2023-12-22T03:19:51;92827.72;;;0.33;100.00
43553;BME280;29153;42.696;23.218;2023-12-22T03:22:19;92830.21;;;0.13;100.00
43553;BME280;29153;42.696;23.218;2023-12-22T03:24:46;92821.86;;;0.13;100.00
43553;BME280;29153;42.696;23.218;2023-12-22T03:27:14;92830.21;;;0.15;100.00
43553;BME280;29153;42.696;23.218;2023-12-22T03:29:43;92823.73;;;0.20;100.00
43553;BME280;29153;42.696;23.218;2023-12-22T03:32:11;92827.14;;;0.26;100.00
43553;BME280;29153;42.696;23.218;2023-12-22T03:34:39;92819.63;;;0.32;100.00
43553;BME280;29153;42.696;23.218;2023-12-22T03:37:07;92818.36;;;0.37;100.00
43553;BME280;29153;42.696;23.218;2023-12-22T03:39:35;92822.27;;;0.37;100.00
43553;BME280;29153;42.696;23.218;2023-12-22T03:42:03;92813.67;;;0.39;100.00
43553;BME280;29153;42.696;23.218;2023-12-22T03:44:30;92816.52;;;0.30;100.00
43553;BME280;29153;42.696;23.218;2023-12-22T03:46:58;92818.57;;;0.25;100.00
43553;BME280;29153;42.696;23.218;2023-12-22T03:49:25;92816.31;;;0.41;100.00
43553;BME280;29153;42.696;23.218;2023-12-22T03:51:53;92826.72;;;0.41;100.00
43553;BME280;29153;42.696;23.218;2023-12-22T03:54:20;92819.42;;;0.41;100.00
43553;BME280;29153;42.696;23.218;2023-12-22T03:56:48;92820.00;;;0.51;100.00
43553;BME280;29153;42.696;23.218;2023-12-22T03:59:15;92816.58;;;0.45;100.00
43553;BME280;29153;42.696;23.218;2023-12-22T04:01:49;92831.75;;;0.56;100.00
43553;BME280;29153;42.696;23.218;2023-12-22T04:04:14;92822.84;;;0.52;100.00
43553;BME280;29153;42.696;23.218;2023-12-22T04:06:41;92828.09;;;0.57;100.00
43553;BME280;29153;42.696;23.218;2023-12-22T04:09:09;92821.03;;;0.52;100.00
43553;BME280;29153;42.696;23.218;2023-12-22T04:11:36;92819.67;;;0.39;100.00
43553;BME280;29153;42.696;23.218;2023-12-22T04:14:04;92823.84;;;0.43;100.00
43553;BME280;29153;42.696;23.218;2023-12-22T04:16:31;92819.42;;;0.41;100.00
43553;BME280;29153;42.696;23.218;2023-12-22T04:18:59;92823.61;;;0.42;100.00
43553;BME280;29153;42.696;23.218;2023-12-22T04:21:26;92829.94;;;0.59;100.00
43553;BME280;29153;42.696;23.218;2023-12-22T04:23:54;92822.09;;;0.56;100.00
43553;BME280;29153;42.696;23.218;2023-12-22T04:26:21;92825.73;;;0.50;100.00
43553;BME280;29153;42.696;23.218;2023-12-22T04:28:49;92821.06;;;0.55;100.00
43553;BME280;29153;42.696;23.218;2023-12-22T04:31:16;92819.24;;;0.55;100.00
43553;BME280;29153;42.696;23.218;2023-12-22T04:33:44;92812.97;;;0.56;100.00
43553;BME280;29153;42.696;23.218;2023-12-22T04:36:12;92803.10;;;0.56;100.00
43553;BME280;29153;42.696;23.218;2023-12-22T04:38:39;92807.52;;;0.60;100.00
43553;BME280;29153;42.696;23.218;2023-12-22T04:41:07;92798.65;;;0.56;100.00
43553;BME280;29153;42.696;23.218;2023-12-22T04:43:35;92798.67;;;0.61;100.00
43553;BME280;29153;42.696;23.218;2023-12-22T04:46:02;92787.25;;;0.67;100.00
43553;BME280;29153;42.696;23.218;2023-12-22T04:48:30;92789.09;;;0.74;100.00
43553;BME280;29153;42.696;23.218;2023-12-22T04:50:59;92774.25;;;0.72;100.00
43553;BME280;29153;42.696;23.218;2023-12-22T04:53:27;92785.94;;;0.70;100.00
43553;BME280;29153;42.696;23.218;2023-12-22T04:55:54;92779.70;;;0.71;100.00
43553;BME280;29153;42.696;23.218;2023-12-22T04:58:22;92778.94;;;0.75;100.00
43553;BME280;29153;42.696;23.218;2023-12-22T05:00:49;92777.70;;;1.01;100.00
43553;BME280;29153;42.696;23.218;2023-12-22T05:03:17;92769.94;;;1.31;100.00
43553;BME280;29153;42.696;23.218;2023-12-22T05:05:44;92772.28;;;1.75;100.00
43553;BME280;29153;42.696;23.218;2023-12-22T05:08:12;92772.51;;;2.17;100.00
43553;BME280;29153;42.696;23.218;2023-12-22T05:10:39;92776.88;;;2.42;100.00
43553;BME280;29153;42.696;23.218;2023-12-22T05:13:07;92775.80;;;2.55;100.00
43553;BME280;29153;42.696;23.218;2023-12-22T05:15:34;92765.53;;;2.71;100.00
43553;BME280;29153;42.696;23.218;2023-12-22T05:18:02;92695.86;;;2.44;100.00
43553;BME280;29153;42.696;23.218;2023-12-22T05:20:29;92771.94;;;3.02;100.00
43553;BME280;29153;42.696;23.218;2023-12-22T05:22:57;92782.66;;;3.00;100.00
43553;BME280;29153;42.696;23.218;2023-12-22T05:25:25;92768.03;;;2.99;100.00
43553;BME280;29153;42.696;23.218;2023-12-22T05:27:56;92782.87;;;3.11;100.00
43553;BME280;29153;42.696;23.218;2023-12-22T05:30:21;92782.87;;;3.09;100.00
43553;BME280;29153;42.696;23.218;2023-12-22T05:32:49;92771.89;;;3.12;100.00
43553;BME280;29153;42.696;23.218;2023-12-22T05:35:16;92782.56;;;3.18;100.00
43553;BME280;29153;42.696;23.218;2023-12-22T05:37:44;92785.42;;;3.21;100.00
43553;BME280;29153;42.696;23.218;2023-12-22T05:40:11;92783.84;;;3.23;100.00
43553;BME280;29153;42.696;23.218;2023-12-22T05:42:39;92784.69;;;3.16;100.00
43553;BME280;29153;42.696;23.218;2023-12-22T05:45:07;92774.45;;;3.17;100.00
43553;BME280;29153;42.696;23.218;2023-12-22T05:47:36;92773.07;;;3.32;100.00
43553;BME280;29153;42.696;23.218;2023-12-22T05:50:04;92775.28;;;3.51;100.00
43553;BME280;29153;42.696;23.218;2023-12-22T05:52:32;92767.89;;;3.61;100.00
43553;BME280;29153;42.696;23.218;2023-12-22T05:54:59;92757.12;;;3.68;100.00
43553;BME280;29153;42.696;23.218;2023-12-22T05:57:27;92756.95;;;3.85;100.00
43553;BME280;29153;42.696;23.218;2023-12-22T05:59:54;92750.85;;;3.97;100.00
43553;BME280;29153;42.696;23.218;2023-12-22T06:02:22;92768.28;;;4.09;100.00
43553;BME280;29153;42.696;23.218;2023-12-22T06:04:49;92772.70;;;4.14;100.00
43553;BME280;29153;42.696;23.218;2023-12-22T06:07:17;92769.27;;;4.16;100.00
43553;BME280;29153;42.696;23.218;2023-12-22T06:09:45;92781.83;;;4.19;100.00
43553;BME280;29153;42.696;23.218;2023-12-22T06:12:12;92786.81;;;4.16;100.00
43553;BME280;29153;42.696;23.218;2023-12-22T06:14:40;92784.83;;;4.05;100.00
43553;BME280;29153;42.696;23.218;2023-12-22T06:17:07;92790.67;;;3.94;100.00
43553;BME280;29153;42.696;23.218;2023-12-22T06:19:38;92784.33;;;3.72;100.00
43553;BME280;29153;42.696;23.218;2023-12-22T06:22:05;92794.86;;;3.61;100.00
43553;BME280;29153;42.696;23.218;2023-12-22T06:24:37;92786.77;;;3.58;100.00
43553;BME280;29153;42.696;23.218;2023-12-22T06:27:04;92788.58;;;3.60;100.00
43553;BME280;29153;42.696;23.218;2023-12-22T06:29:33;92777.41;;;3.49;100.00
43553;BME280;29153;42.696;23.218;2023-12-22T06:32:01;92787.12;;;3.44;100.00
43553;BME280;29153;42.696;23.218;2023-12-22T06:34:28;92786.57;;;3.47;100.00
43553;BME280;29153;42.696;23.218;2023-12-22T06:36:56;92798.14;;;3.41;100.00
43553;BME280;29153;42.696;23.218;2023-12-22T06:39:23;92786.05;;;3.50;100.00
43553;BME280;29153;42.696;23.218;2023-12-22T06:41:50;92788.63;;;3.52;100.00
43553;BME280;29153;42.696;23.218;2023-12-22T06:44:18;92782.12;;;3.47;100.00
43553;BME280;29153;42.696;23.218;2023-12-22T06:46:45;92782.64;;;3.47;100.00
43553;BME280;29153;42.696;23.218;2023-12-22T06:49:13;92798.41;;;3.42;100.00
43553;BME280;29153;42.696;23.218;2023-12-22T06:51:41;92800.17;;;3.49;100.00
43553;BME280;29153;42.696;23.218;2023-12-22T06:54:08;92796.57;;;3.42;100.00
43553;BME280;29153;42.696;23.218;2023-12-22T06:56:36;92800.99;;;3.44;100.00
43553;BME280;29153;42.696;23.218;2023-12-22T06:59:04;92794.45;;;3.44;100.00
43553;BME280;29153;42.696;23.218;2023-12-22T07:01:33;92810.67;;;3.46;100.00
43553;BME280;29153;42.696;23.218;2023-12-22T07:04:02;92799.86;;;3.55;100.00
43553;BME280;29153;42.696;23.218;2023-12-22T07:06:32;92788.77;;;3.71;100.00
43553;BME280;29153;42.696;23.218;2023-12-22T07:11:50;92799.31;;;3.95;100.00
43553;BME280;29153;42.696;23.218;2023-12-22T07:14:19;92796.50;;;3.89;100.00
43553;BME280;29153;42.696;23.218;2023-12-22T07:16:46;92801.44;;;3.93;100.00
43553;BME280;29153;42.696;23.218;2023-12-22T07:19:14;92804.84;;;3.91;100.00
43553;BME280;29153;42.696;23.218;2023-12-22T07:21:41;92800.59;;;4.00;100.00
43553;BME280;29153;42.696;23.218;2023-12-22T07:24:09;92807.66;;;3.99;100.00
43553;BME280;29153;42.696;23.218;2023-12-22T07:26:36;92804.92;;;4.15;100.00
43553;BME280;29153;42.696;23.218;2023-12-22T07:29:04;92813.55;;;4.15;100.00
43553;BME280;29153;42.696;23.218;2023-12-22T07:31:31;92813.09;;;4.08;100.00
43553;BME280;29153;42.696;23.218;2023-12-22T07:33:59;92816.94;;;4.18;100.00
43553;BME280;29153;42.696;23.218;2023-12-22T07:36:26;92813.84;;;4.13;100.00
43553;BME280;29153;42.696;23.218;2023-12-22T07:38:54;92814.06;;;4.17;100.00
43553;BME280;29153;42.696;23.218;2023-12-22T07:41:23;92823.76;;;4.17;100.00
43553;BME280;29153;42.696;23.218;2023-12-22T07:43:51;92815.90;;;4.17;100.00
43553;BME280;29153;42.696;23.218;2023-12-22T07:46:19;92820.91;;;4.13;100.00
43553;BME280;29153;42.696;23.218;2023-12-22T07:48:48;92821.33;;;4.25;100.00
43553;BME280;29153;42.696;23.218;2023-12-22T07:51:17;92819.67;;;4.34;100.00
43553;BME280;29153;42.696;23.218;2023-12-22T07:53:44;92824.95;;;4.29;100.00
43553;BME280;29153;42.696;23.218;2023-12-22T07:56:12;92823.05;;;4.37;100.00
43553;BME280;29153;42.696;23.218;2023-12-22T07:58:40;92830.00;;;4.49;100.00
43553;BME280;29153;42.696;23.218;2023-12-22T08:01:07;92840.35;;;4.65;100.00
43553;BME280;29153;42.696;23.218;2023-12-22T08:03:35;92842.80;;;4.80;100.00
43553;BME280;29153;42.696;23.218;2023-12-22T08:06:04;92855.39;;;4.80;100.00
43553;BME280;29153;42.696;23.218;2023-12-22T08:08:31;92859.02;;;4.87;100.00
43553;BME280;29153;42.696;23.218;2023-12-22T08:10:59;92859.02;;;4.87;100.00
43553;BME280;29153;42.696;23.218;2023-12-22T08:13:27;92872.36;;;4.88;100.00
43553;BME280;29153;42.696;23.218;2023-12-22T08:15:54;92874.59;;;4.76;100.00
43553;BME280;29153;42.696;23.218;2023-12-22T08:18:22;92791.94;;;4.28;100.00
43553;BME280;29153;42.696;23.218;2023-12-22T08:20:50;92871.07;;;4.62;100.00
43553;BME280;29153;42.696;23.218;2023-12-22T08:23:17;92875.15;;;4.73;100.00
43553;BME280;29153;42.696;23.218;2023-12-22T08:25:44;92881.19;;;4.71;100.00
43553;BME280;29153;42.696;23.218;2023-12-22T08:28:12;92865.45;;;4.71;100.00
43553;BME280;29153;42.696;23.218;2023-12-22T08:30:39;92874.14;;;4.69;100.00
43553;BME280;29153;42.696;23.218;2023-12-22T08:33:07;92880.03;;;4.55;100.00
43553;BME280;29153;42.696;23.218;2023-12-22T08:35:34;92874.30;;;4.51;100.00
43553;BME280;29153;42.696;23.218;2023-12-22T08:38:02;92879.81;;;4.49;100.00
43553;BME280;29153;42.696;23.218;2023-12-22T08:40:30;92875.65;;;4.48;100.00
43553;BME280;29153;42.696;23.218;2023-12-22T08:42:57;92877.38;;;4.58;100.00
43553;BME280;29153;42.696;23.218;2023-12-22T08:45:27;92875.61;;;4.53;100.00
43553;BME280;29153;42.696;23.218;2023-12-22T08:47:57;92876.92;;;4.53;100.00
43553;BME280;29153;42.696;23.218;2023-12-22T08:50:24;92880.37;;;4.46;100.00
43553;BME280;29153;42.696;23.218;2023-12-22T08:52:52;92881.48;;;4.40;100.00
43553;BME280;29153;42.696;23.218;2023-12-22T08:55:19;92876.92;;;4.53;100.00
43553;BME280;29153;42.696;23.218;2023-12-22T08:57:47;92878.05;;;4.45;100.00
43553;BME280;29153;42.696;23.218;2023-12-22T09:00:14;92871.48;;;4.45;100.00
43553;BME280;29153;42.696;23.218;2023-12-22T09:02:42;92887.48;;;4.43;100.00
43553;BME280;29153;42.696;23.218;2023-12-22T09:05:10;92894.23;;;4.49;100.00
43553;BME280;29153;42.696;23.218;2023-12-22T09:07:37;92894.45;;;4.55;100.00
43553;BME280;29153;42.696;23.218;2023-12-22T09:10:05;92902.05;;;4.57;100.00
43553;BME280;29153;42.696;23.218;2023-12-22T09:12:33;92907.97;;;4.68;100.00
43553;BME280;29153;42.696;23.218;2023-12-22T09:15:01;92909.99;;;4.76;100.00
43553;BME280;29153;42.696;23.218;2023-12-22T09:17:28;92923.62;;;4.78;100.00
43553;BME280;29153;42.696;23.218;2023-12-22T09:19:56;92918.34;;;4.83;100.00
43553;BME280;29153;42.696;23.218;2023-12-22T09:22:24;92916.05;;;4.74;100.00
43553;BME280;29153;42.696;23.218;2023-12-22T09:24:51;92918.95;;;4.72;100.00
43553;BME280;29153;42.696;23.218;2023-12-22T09:27:19;92924.07;;;4.85;100.00
43553;BME280;29153;42.696;23.218;2023-12-22T09:29:46;92921.83;;;4.71;100.00
43553;BME280;29153;42.696;23.218;2023-12-22T09:32:14;92914.37;;;4.85;100.00
43553;BME280;29153;42.696;23.218;2023-12-22T09:34:42;92910.20;;;4.82;100.00
43553;BME280;29153;42.696;23.218;2023-12-22T09:37:09;92907.24;;;4.88;100.00
43553;BME280;29153;42.696;23.218;2023-12-22T09:39:37;92893.11;;;4.87;100.00
43553;BME280;29153;42.696;23.218;2023-12-22T09:42:05;92893.11;;;4.87;100.00
43553;BME280;29153;42.696;23.218;2023-12-22T09:44:33;92885.20;;;4.89;100.00
43553;BME280;29153;42.696;23.218;2023-12-22T09:47:04;92885.42;;;4.95;100.00
43553;BME280;29153;42.696;23.218;2023-12-22T09:49:36;92885.42;;;4.95;100.00
43553;BME280;29153;42.696;23.218;2023-12-22T09:52:05;92887.59;;;5.12;100.00
43553;BME280;29153;42.696;23.218;2023-12-22T09:54:33;92892.53;;;5.16;100.00
43553;BME280;29153;42.696;23.218;2023-12-22T09:57:02;92893.98;;;5.27;100.00
43553;BME280;29153;42.696;23.218;2023-12-22T09:59:31;92889.89;;;5.40;100.00
43553;BME280;29153;42.696;23.218;2023-12-22T10:02:00;92884.36;;;5.41;100.00
43553;BME280;29153;42.696;23.218;2023-12-22T10:04:29;92884.11;;;5.40;100.00
43553;BME280;29153;42.696;23.218;2023-12-22T10:06:58;92889.41;;;5.35;100.00
43553;BME280;29153;42.696;23.218;2023-12-22T10:09:27;92890.61;;;5.45;100.00
43553;BME280;29153;42.696;23.218;2023-12-22T10:11:56;92887.98;;;5.45;100.00
43553;BME280;29153;42.696;23.218;2023-12-22T10:14:26;92877.38;;;5.53;100.00
43553;BME280;29153;42.696;23.218;2023-12-22T10:16:54;92872.97;;;5.48;100.00
43553;BME280;29153;42.696;23.218;2023-12-22T10:19:22;92869.25;;;5.52;100.00
43553;BME280;29153;42.696;23.218;2023-12-22T10:21:49;92871.12;;;5.52;100.00
43553;BME280;29153;42.696;23.218;2023-12-22T10:24:41;92871.22;;;5.63;100.00
43553;BME280;29153;42.696;23.218;2023-12-22T10:27:04;92871.10;;;5.73;100.00
43553;BME280;29153;42.696;23.218;2023-12-22T10:29:32;92850.77;;;5.78;100.00
43553;BME280;29153;42.696;23.218;2023-12-22T10:32:01;92853.50;;;5.92;100.00
43553;BME280;29153;42.696;23.218;2023-12-22T10:34:29;92864.20;;;5.98;100.00
43553;BME280;29153;42.696;23.218;2023-12-22T10:37:02;92849.56;;;6.11;100.00
43553;BME280;29153;42.696;23.218;2023-12-22T10:39:30;92837.42;;;6.12;100.00
43553;BME280;29153;42.696;23.218;2023-12-22T10:41:58;92827.27;;;6.24;100.00
43553;BME280;29153;42.696;23.218;2023-12-22T10:44:29;92825.09;;;6.29;100.00
43553;BME280;29153;42.696;23.218;2023-12-22T10:46:57;92831.45;;;6.42;100.00
43553;BME280;29153;42.696;23.218;2023-12-22T10:49:25;92811.92;;;6.45;100.00
43553;BME280;29153;42.696;23.218;2023-12-22T10:51:53;92816.27;;;6.52;100.00
43553;BME280;29153;42.696;23.218;2023-12-22T10:54:20;92827.68;;;6.61;100.00
43553;BME280;29153;42.696;23.218;2023-12-22T10:56:48;92824.44;;;6.67;100.00
43553;BME280;29153;42.696;23.218;2023-12-22T10:59:19;92829.05;;;6.72;100.00
43553;BME280;29153;42.696;23.218;2023-12-22T11:01:48;92830.09;;;6.74;100.00
43553;BME280;29153;42.696;23.218;2023-12-22T11:04:19;92831.74;;;6.70;100.00
43553;BME280;29153;42.696;23.218;2023-12-22T11:06:50;92822.87;;;6.66;100.00
43553;BME280;29153;42.696;23.218;2023-12-22T11:09:21;92816.30;;;6.66;100.00
43553;BME280;29153;42.696;23.218;2023-12-22T11:11:53;92803.08;;;6.68;100.00
43553;BME280;29153;42.696;23.218;2023-12-22T11:14:21;92796.37;;;6.90;100.00
43553;BME280;29153;42.696;23.218;2023-12-22T11:16:52;92795.59;;;7.03;100.00
43553;BME280;29153;42.696;23.218;2023-12-22T11:19:21;92786.12;;;7.15;100.00
43553;BME280;29153;42.696;23.218;2023-12-22T11:21:50;92796.37;;;7.17;100.00
43553;BME280;29153;42.696;23.218;2023-12-22T11:24:19;92803.04;;;7.25;99.14
43553;BME280;29153;42.696;23.218;2023-12-22T11:26:49;92800.13;;;7.13;100.00
43553;BME280;29153;42.696;23.218;2023-12-22T11:29:18;92806.12;;;7.03;100.00
43553;BME280;29153;42.696;23.218;2023-12-22T11:31:48;92819.28;;;7.03;100.00
43553;BME280;29153;42.696;23.218;2023-12-22T11:34:18;92833.52;;;6.88;100.00
43553;BME280;29153;42.696;23.218;2023-12-22T11:36:47;92834.95;;;6.80;100.00
43553;BME280;29153;42.696;23.218;2023-12-22T11:39:15;92838.38;;;6.67;100.00
43553;BME280;29153;42.696;23.218;2023-12-22T11:41:43;92843.21;;;6.60;100.00
43553;BME280;29153;42.696;23.218;2023-12-22T11:44:12;92864.52;;;6.45;100.00
43553;BME280;29153;42.696;23.218;2023-12-22T11:46:40;92873.53;;;6.42;100.00
43553;BME280;29153;42.696;23.218;2023-12-22T11:49:07;92859.02;;;6.28;100.00
43553;BME280;29153;42.696;23.218;2023-12-22T11:51:35;92852.39;;;6.14;100.00
43553;BME280;29153;42.696;23.218;2023-12-22T11:54:03;92846.30;;;6.16;100.00
43553;BME280;29153;42.696;23.218;2023-12-22T11:56:31;92845.55;;;6.16;100.00
43553;BME280;29153;42.696;23.218;2023-12-22T11:58:58;92859.02;;;6.12;100.00
43553;BME280;29153;42.696;23.218;2023-12-22T12:01:27;92859.16;;;6.02;100.00
43553;BME280;29153;42.696;23.218;2023-12-22T12:04:02;92860.63;;;6.08;100.00
43553;BME280;29153;42.696;23.218;2023-12-22T12:06:32;92859.36;;;6.05;100.00
43553;BME280;29153;42.696;23.218;2023-12-22T12:09:03;92870.53;;;6.13;100.00
43553;BME280;29153;42.696;23.218;2023-12-22T12:14:31;92882.34;;;5.97;100.00
43553;BME280;29153;42.696;23.218;2023-12-22T12:17:10;92866.75;;;5.82;100.00
43553;BME280;29153;42.696;23.218;2023-12-22T12:19:29;92862.38;;;5.77;100.00
43553;BME280;29153;42.696;23.218;2023-12-22T12:21:57;92853.94;;;5.78;100.00
43553;BME280;29153;42.696;23.218;2023-12-22T12:24:27;92837.96;;;5.74;100.00
43553;BME280;29153;42.696;23.218;2023-12-22T12:26:55;92832.76;;;5.72;100.00
43553;BME280;29153;42.696;23.218;2023-12-22T12:29:22;92833.09;;;5.65;100.00
43553;BME280;29153;42.696;23.218;2023-12-22T12:31:51;92835.19;;;5.66;100.00
43553;BME280;29153;42.696;23.218;2023-12-22T12:34:18;92829.46;;;5.64;100.00
43553;BME280;29153;42.696;23.218;2023-12-22T12:36:48;92822.96;;;5.59;100.00
43553;BME280;29153;42.696;23.218;2023-12-22T12:39:16;92817.12;;;5.62;100.00
43553;BME280;29153;42.696;23.218;2023-12-22T12:41:47;92795.24;;;5.50;100.00
43553;BME280;29153;42.696;23.218;2023-12-22T12:44:17;92792.73;;;5.42;100.00
43553;BME280;29153;42.696;23.218;2023-12-22T12:46:45;92793.52;;;5.43;100.00
43553;BME280;29153;42.696;23.218;2023-12-22T12:49:13;92785.33;;;5.44;100.00
43553;BME280;29153;42.696;23.218;2023-12-22T12:51:47;92791.20;;;5.39;100.00
43553;BME280;29153;42.696;23.218;2023-12-22T12:54:15;92796.89;;;5.43;100.00
43553;BME280;29153;42.696;23.218;2023-12-22T12:56:45;92809.73;;;5.47;100.00
43553;BME280;29153;42.696;23.218;2023-12-22T12:59:14;92818.47;;;5.40;100.00
43553;BME280;29153;42.696;23.218;2023-12-22T13:01:47;92818.47;;;5.40;100.00